Time;durP1;ratioP1;P1;durP2;ratioP2;P2;SDS_P1;SDS_P2;PMS_P1;PMS_P2;Temp;Humidity;BMP_temperature;BMP_pressure;BME280_temperature;BME280_humidity;BME280_pressure;Samples;Min_cycle;Max_cycle;Signal;HPM_P1;HPM_P2
2022/11/24 00:00:26;;;;;;;137.07;131.70;;;4.30;99.90;;;;;;5036713;28;20029;-85
2022/11/24 00:02:52;;;;;;;335.00;316.42;;;4.40;99.90;;;;;;5024802;28;20041;-84
2022/11/24 00:05:17;;;;;;;275.27;264.13;;;4.40;99.90;;;;;;5029718;28;20455;-83
2022/11/24 00:07:43;;;;;;;195.93;188.13;;;4.40;99.90;;;;;;5030977;28;20032;-83
2022/11/24 00:10:11;;;;;;;231.05;217.45;;;4.40;99.90;;;;;;5029616;28;20446;-84
2022/11/24 00:12:36;;;;;;;170.73;164.30;;;4.20;99.90;;;;;;5041351;28;20029;-84
2022/11/24 00:15:02;;;;;;;142.82;137.43;;;4.10;99.90;;;;;;5040571;28;20032;-84
2022/11/24 00:17:28;;;;;;;192.40;184.40;;;4.00;99.90;;;;;;5009776;28;20037;-83
2022/11/24 00:19:54;;;;;;;161.07;154.38;;;3.90;99.90;;;;;;5013819;28;20032;-82
2022/11/24 00:22:20;;;;;;;124.65;119.55;;;3.80;99.90;;;;;;5030294;28;20060;-81
2022/11/24 00:24:45;;;;;;;261.25;251.02;;;4.00;99.90;;;;;;5048574;28;20063;-80
2022/11/24 00:27:11;;;;;;;184.38;177.23;;;4.00;99.90;;;;;;5030647;28;20045;-82
2022/11/24 00:29:37;;;;;;;90.60;87.03;;;4.00;99.90;;;;;;5028103;28;20033;-83
2022/11/24 00:32:05;;;;;;;123.75;118.95;;;4.10;99.90;;;;;;5030289;28;20037;-86
2022/11/24 00:34:32;;;;;;;178.10;171.27;;;4.10;99.90;;;;;;5048091;28;20033;-84
2022/11/24 00:36:58;;;;;;;160.73;154.60;;;4.30;99.90;;;;;;5028437;28;20035;-82
2022/11/24 00:39:23;;;;;;;75.85;72.90;;;4.30;99.90;;;;;;5048131;28;20483;-84
2022/11/24 00:41:49;;;;;;;180.25;173.00;;;4.40;99.90;;;;;;5048064;28;20045;-85
2022/11/24 00:44:14;;;;;;;196.43;187.93;;;4.30;99.90;;;;;;5028329;28;20090;-83
2022/11/24 00:46:40;;;;;;;124.97;120.05;;;4.40;99.90;;;;;;5013118;28;20083;-83
2022/11/24 00:49:06;;;;;;;155.43;149.55;;;4.40;99.90;;;;;;5030266;28;20813;-83
2022/11/24 00:51:32;;;;;;;107.75;103.70;;;4.40;99.90;;;;;;5053033;28;20123;-84
2022/11/24 00:53:58;;;;;;;78.38;75.50;;;4.50;99.90;;;;;;5066343;28;20025;-84
2022/11/24 00:56:25;;;;;;;76.45;73.18;;;4.50;99.90;;;;;;5048435;28;20032;-84
2022/11/24 00:58:51;;;;;;;119.38;114.32;;;4.50;99.90;;;;;;5046892;28;20128;-83
2022/11/24 01:01:20;;;;;;;147.32;141.55;;;4.70;99.90;;;;;;5032428;28;20041;-83
2022/11/24 01:03:46;;;;;;;139.25;133.85;;;4.60;99.90;;;;;;5053597;28;20028;-84
2022/11/24 01:06:15;;;;;;;183.55;175.75;;;4.70;99.90;;;;;;5067790;28;20032;-85
2022/11/24 01:08:41;;;;;;;164.85;156.35;;;4.70;99.90;;;;;;5071340;28;20103;-86
2022/11/24 01:11:14;;;;;;;128.70;123.15;;;4.60;99.90;;;;;;5053509;28;20017;-84
2022/11/24 01:13:41;;;;;;;120.55;115.57;;;4.60;99.90;;;;;;5071723;28;20025;-84
2022/11/24 01:16:14;;;;;;;147.70;142.00;;;4.60;99.90;;;;;;5071200;28;20020;-82
2022/11/24 01:18:39;;;;;;;111.85;107.53;;;4.70;99.90;;;;;;5071679;28;20031;-79
2022/11/24 01:21:06;;;;;;;247.23;237.38;;;4.80;99.90;;;;;;5053174;28;20036;-84
2022/11/24 01:23:32;;;;;;;212.02;200.85;;;4.70;99.90;;;;;;5071322;28;20032;-80
2022/11/24 01:25:57;;;;;;;282.33;266.52;;;4.80;99.90;;;;;;5048042;28;20471;-84
2022/11/24 01:28:23;;;;;;;323.10;294.17;;;4.80;99.90;;;;;;5036734;28;20025;-83
2022/11/24 01:30:59;;;;;;;239.35;229.57;;;4.80;99.90;;;;;;5052846;28;20494;-84
2022/11/24 01:33:25;;;;;;;201.77;193.85;;;4.80;99.90;;;;;;5066609;28;20522;-85
2022/11/24 01:35:51;;;;;;;123.80;118.90;;;4.80;99.90;;;;;;5052763;28;20052;-84
2022/11/24 01:38:16;;;;;;;252.55;227.95;;;4.80;99.90;;;;;;5070157;28;20044;-81
2022/11/24 01:40:43;;;;;;;121.72;116.90;;;4.90;99.90;;;;;;5071227;28;20103;-84
2022/11/24 01:43:17;;;;;;;129.98;124.28;;;4.90;99.90;;;;;;5052758;28;20024;-83
2022/11/24 01:45:44;;;;;;;131.18;125.47;;;5.00;99.90;;;;;;5051702;28;20064;-82
2022/11/24 01:48:19;;;;;;;173.60;164.38;;;5.00;99.90;;;;;;5069717;28;20533;-85
2022/11/24 01:50:52;;;;;;;146.90;140.95;;;5.00;99.90;;;;;;5052557;28;20024;-84
2022/11/24 01:53:19;;;;;;;169.80;162.98;;;5.10;99.90;;;;;;5071093;28;20533;-86
2022/11/24 01:55:45;;;;;;;173.90;167.52;;;5.00;99.90;;;;;;5052458;28;20097;-85
2022/11/24 01:58:31;;;;;;;263.23;248.40;;;5.00;99.90;;;;;;5068712;28;20486;-87
2022/11/24 02:00:56;;;;;;;155.95;145.93;;;5.00;99.90;;;;;;5069013;28;20112;-83
2022/11/24 02:03:26;;;;;;;175.15;167.95;;;4.90;99.90;;;;;;5070191;28;20112;-86
2022/11/24 02:06:01;;;;;;;136.25;130.73;;;5.00;99.90;;;;;;5051006;28;20494;-81
2022/11/24 02:08:33;;;;;;;197.07;188.80;;;5.00;99.90;;;;;;5048063;28;20036;-83
2022/11/24 02:11:03;;;;;;;169.00;162.27;;;5.00;99.90;;;;;;5047803;28;20099;-83
2022/11/24 02:13:29;;;;;;;104.63;100.82;;;5.00;99.90;;;;;;5034017;28;20033;-84
2022/11/24 02:15:55;;;;;;;164.45;157.30;;;5.00;99.90;;;;;;5048841;28;20044;-82
2022/11/24 02:18:20;;;;;;;189.07;181.77;;;4.90;99.90;;;;;;5048027;28;20025;-82
2022/11/24 02:20:46;;;;;;;181.15;173.23;;;4.90;99.90;;;;;;5049171;28;20029;-81
2022/11/24 02:23:20;;;;;;;124.15;119.68;;;4.90;99.90;;;;;;5047062;28;20040;-83
2022/11/24 02:26:04;;;;;;;161.15;154.27;;;4.70;99.90;;;;;;5066268;28;20035;-80
2022/11/24 02:28:31;;;;;;;152.77;146.13;;;4.80;99.90;;;;;;5068496;28;20029;-80
2022/11/24 02:30:58;;;;;;;141.95;135.88;;;4.70;99.90;;;;;;5037163;28;20093;-84
2022/11/24 02:33:24;;;;;;;118.68;113.80;;;4.70;99.90;;;;;;5069905;28;20047;-83
2022/11/24 02:35:51;;;;;;;154.07;148.23;;;4.60;99.90;;;;;;5049525;28;20086;-85
2022/11/24 02:38:18;;;;;;;109.45;104.68;;;4.40;99.90;;;;;;5063022;28;20109;-84
2022/11/24 02:40:47;;;;;;;216.60;202.93;;;4.30;99.90;;;;;;5034147;28;20087;-86
2022/11/24 02:43:16;;;;;;;247.07;233.90;;;4.40;99.90;;;;;;5062604;28;20094;-82
2022/11/24 02:45:42;;;;;;;212.40;195.43;;;4.30;99.90;;;;;;5051973;28;20024;-85
2022/11/24 02:48:07;;;;;;;138.77;133.70;;;4.40;99.90;;;;;;5050725;28;20098;-85
2022/11/24 02:50:33;;;;;;;326.63;303.05;;;4.30;99.90;;;;;;5069659;28;20017;-84
2022/11/24 02:52:59;;;;;;;167.07;154.68;;;4.40;99.90;;;;;;5051711;28;20048;-83
2022/11/24 02:55:24;;;;;;;100.80;96.93;;;4.40;99.90;;;;;;5051442;28;20048;-83
2022/11/24 02:57:50;;;;;;;190.95;181.52;;;4.30;99.90;;;;;;5048663;28;20040;-85
2022/11/24 03:00:16;;;;;;;244.35;230.75;;;4.40;99.90;;;;;;5069297;28;20403;-81
2022/11/24 03:02:42;;;;;;;192.60;180.75;;;4.40;99.90;;;;;;5069469;28;20111;-84
2022/11/24 03:05:10;;;;;;;134.77;129.70;;;4.50;99.90;;;;;;5050385;28;20779;-83
2022/11/24 03:07:37;;;;;;;176.13;169.23;;;4.50;99.90;;;;;;5048078;28;20060;-81
2022/11/24 03:10:03;;;;;;;241.30;231.60;;;4.50;99.90;;;;;;5032339;28;20800;-86
2022/11/24 03:12:29;;;;;;;162.43;154.40;;;4.40;99.90;;;;;;5069079;28;20032;-84
2022/11/24 03:14:54;;;;;;;165.73;159.00;;;4.40;99.90;;;;;;5046103;28;20631;-84
2022/11/24 03:17:21;;;;;;;172.85;164.15;;;4.50;99.90;;;;;;5049473;28;20363;-82
2022/11/24 03:19:47;;;;;;;144.93;139.38;;;4.50;99.90;;;;;;5051013;28;20081;-83
2022/11/24 03:22:13;;;;;;;125.65;119.63;;;4.40;99.90;;;;;;5051003;28;20037;-83
2022/11/24 03:24:38;;;;;;;107.95;103.40;;;4.40;99.90;;;;;;5051129;28;20029;-86
2022/11/24 03:27:04;;;;;;;112.82;108.50;;;4.40;99.90;;;;;;5065771;28;20487;-82
2022/11/24 03:29:30;;;;;;;187.20;176.65;;;4.40;99.90;;;;;;5068776;28;20112;-84
2022/11/24 03:31:55;;;;;;;273.83;260.60;;;4.30;99.90;;;;;;5050852;28;20085;-83
2022/11/24 03:34:21;;;;;;;157.95;145.55;;;4.40;99.90;;;;;;5033412;28;20040;-83
2022/11/24 03:36:46;;;;;;;188.77;181.57;;;4.40;99.90;;;;;;5047963;28;20082;-80
2022/11/24 03:39:14;;;;;;;144.35;138.68;;;4.30;99.90;;;;;;5067871;28;20490;-85
2022/11/24 03:41:41;;;;;;;177.05;169.50;;;4.20;99.90;;;;;;5050939;28;20032;-82
2022/11/24 03:44:06;;;;;;;172.25;163.70;;;4.10;99.90;;;;;;5034106;28;20029;-82
2022/11/24 03:46:32;;;;;;;403.98;372.98;;;4.10;99.90;;;;;;5033435;28;20033;-82
2022/11/24 03:48:58;;;;;;;115.53;111.05;;;4.00;99.90;;;;;;5050708;28;20107;-86
2022/11/24 03:51:23;;;;;;;300.65;285.83;;;4.10;99.90;;;;;;5050538;28;20068;-86
2022/11/24 03:53:49;;;;;;;195.88;188.10;;;4.00;99.90;;;;;;5048490;28;20036;-83
2022/11/24 03:56:15;;;;;;;181.40;174.18;;;4.00;99.90;;;;;;5050337;28;20035;-86
2022/11/24 03:58:41;;;;;;;253.75;243.13;;;3.90;99.90;;;;;;5048275;28;20547;-83
2022/11/24 04:01:09;;;;;;;174.85;165.13;;;3.90;99.90;;;;;;5068135;28;20395;-86
2022/11/24 04:03:35;;;;;;;399.45;367.55;;;3.90;99.90;;;;;;5068442;28;20028;-84
2022/11/24 04:06:00;;;;;;;283.50;267.35;;;4.00;99.90;;;;;;5048348;28;20415;-85
2022/11/24 04:08:26;;;;;;;142.50;136.15;;;4.00;99.90;;;;;;5049848;28;20059;-84
2022/11/24 04:10:53;;;;;;;364.02;334.77;;;3.90;99.90;;;;;;5049726;28;20101;-86
2022/11/24 04:13:22;;;;;;;527.60;496.02;;;4.00;99.90;;;;;;5066114;28;20873;-84
2022/11/24 04:15:49;;;;;;;271.27;246.68;;;3.90;99.90;;;;;;5066970;28;20028;-83
2022/11/24 04:18:16;;;;;;;182.18;174.57;;;3.90;99.90;;;;;;5066376;28;20064;-81
2022/11/24 04:20:42;;;;;;;215.85;206.93;;;3.90;99.90;;;;;;5068617;28;20060;-84
2022/11/24 04:23:08;;;;;;;158.50;152.50;;;3.80;99.90;;;;;;5068482;28;20060;-85
2022/11/24 04:25:34;;;;;;;113.40;107.82;;;3.80;99.90;;;;;;5050251;28;20214;-83
2022/11/24 04:27:59;;;;;;;196.98;182.65;;;3.80;99.90;;;;;;5064204;28;20035;-83
2022/11/24 04:30:28;;;;;;;214.07;205.13;;;3.80;99.90;;;;;;5033685;28;20036;-82
2022/11/24 04:32:54;;;;;;;134.98;129.43;;;3.70;99.90;;;;;;5050027;28;20408;-86
2022/11/24 04:35:21;;;;;;;145.38;137.52;;;3.80;99.90;;;;;;5069436;28;20040;-85
2022/11/24 04:37:47;;;;;;;155.57;149.15;;;3.80;99.90;;;;;;5067214;28;20037;-82
2022/11/24 04:40:13;;;;;;;201.90;194.48;;;3.90;99.90;;;;;;5072130;28;20036;-84
2022/11/24 04:42:39;;;;;;;290.98;274.40;;;3.90;99.90;;;;;;5072313;28;20077;-85
2022/11/24 04:45:05;;;;;;;186.75;178.80;;;3.80;99.90;;;;;;5053903;28;20037;-85
2022/11/24 04:47:31;;;;;;;243.05;232.52;;;3.70;99.90;;;;;;5049020;28;20021;-84
2022/11/24 04:49:57;;;;;;;191.35;183.32;;;3.80;99.90;;;;;;5052703;28;20032;-83
2022/11/24 04:52:24;;;;;;;203.45;194.82;;;3.80;99.90;;;;;;5060519;28;20067;-86
2022/11/24 04:54:50;;;;;;;245.77;235.32;;;3.90;99.90;;;;;;5039333;28;20032;-85
2022/11/24 04:57:21;;;;;;;240.32;230.40;;;4.00;99.90;;;;;;5045255;28;20550;-86
2022/11/24 04:59:51;;;;;;;179.00;171.75;;;4.10;99.90;;;;;;5039264;28;20073;-84
2022/11/24 05:02:17;;;;;;;136.60;131.35;;;4.30;99.90;;;;;;5030323;28;20033;-85
2022/11/24 05:04:43;;;;;;;246.07;236.13;;;4.30;99.90;;;;;;5061119;28;20033;-87
2022/11/24 05:07:11;;;;;;;213.52;204.90;;;4.50;99.90;;;;;;5036960;28;20025;-83
2022/11/24 05:10:33;;;;;;;244.77;234.80;;;4.60;99.90;;;;;;5008211;28;20017;-84
2022/11/24 05:12:23;;;;;;;155.45;148.77;;;4.60;99.90;;;;;;5032172;28;20075;-84
2022/11/24 05:14:50;;;;;;;157.30;151.35;;;4.60;99.90;;;;;;5057168;28;20134;-81
2022/11/24 05:17:16;;;;;;;111.00;106.05;;;4.60;99.90;;;;;;5060220;28;20028;-83
2022/11/24 05:19:41;;;;;;;199.38;190.90;;;4.50;99.90;;;;;;5060344;28;20146;-84
2022/11/24 05:22:07;;;;;;;130.32;125.07;;;4.50;99.90;;;;;;5053740;28;20032;-85
2022/11/24 05:24:33;;;;;;;193.63;185.77;;;4.40;99.90;;;;;;5033498;28;20042;-86
2022/11/24 05:26:58;;;;;;;261.50;248.70;;;4.40;99.90;;;;;;5063942;28;20099;-84
2022/11/24 05:29:24;;;;;;;130.93;125.88;;;4.30;99.90;;;;;;5059184;28;20043;-83
2022/11/24 05:31:50;;;;;;;131.25;125.78;;;4.30;99.90;;;;;;5056856;28;20041;-84
2022/11/24 05:34:17;;;;;;;207.57;198.68;;;4.30;99.90;;;;;;5040164;28;20059;-84
2022/11/24 05:36:52;;;;;;;125.40;120.20;;;4.30;99.90;;;;;;5021517;28;20476;-84
2022/11/24 05:39:18;;;;;;;154.35;148.00;;;4.30;99.90;;;;;;5060917;28;20730;-85
2022/11/24 05:41:44;;;;;;;184.65;172.98;;;4.30;99.90;;;;;;5043242;28;20132;-82
2022/11/24 05:44:10;;;;;;;153.68;147.55;;;4.20;99.90;;;;;;5039516;28;20100;-85
2022/11/24 05:46:35;;;;;;;112.10;107.57;;;4.10;99.90;;;;;;5044339;28;20490;-81
2022/11/24 05:49:01;;;;;;;75.85;72.10;;;4.00;99.90;;;;;;5029902;28;20086;-83
2022/11/24 05:51:27;;;;;;;131.52;125.65;;;3.90;99.90;;;;;;5056371;28;20068;-85
2022/11/24 05:53:53;;;;;;;127.30;121.78;;;3.80;99.90;;;;;;5038588;28;20152;-82
2022/11/24 05:56:18;;;;;;;129.45;123.72;;;3.90;99.90;;;;;;5065015;28;20033;-81
2022/11/24 05:58:44;;;;;;;103.72;99.07;;;3.90;99.90;;;;;;5032518;28;20102;-82
2022/11/24 06:01:11;;;;;;;205.70;196.68;;;3.90;99.90;;;;;;5027552;28;20061;-80
2022/11/24 06:03:38;;;;;;;120.80;115.03;;;3.90;99.90;;;;;;5045935;28;20064;-84
2022/11/24 06:06:04;;;;;;;422.98;397.65;;;3.90;99.90;;;;;;5040893;28;20064;-79
2022/11/24 06:08:31;;;;;;;187.35;178.50;;;4.00;99.90;;;;;;5048782;28;20052;-83
2022/11/24 06:11:15;;;;;;;236.20;226.25;;;4.20;99.90;;;;;;5031280;28;20539;-81
2022/11/24 06:13:46;;;;;;;362.42;331.92;;;4.20;99.90;;;;;;5029981;28;20029;-81
2022/11/24 06:16:12;;;;;;;134.52;129.20;;;4.30;99.90;;;;;;5017002;28;20037;-84
2022/11/24 06:18:38;;;;;;;144.10;138.48;;;4.30;99.90;;;;;;5040778;28;20044;-82
2022/11/24 06:21:05;;;;;;;117.43;113.03;;;4.30;99.90;;;;;;5035188;28;20531;-84
2022/11/24 06:23:31;;;;;;;239.98;229.65;;;4.20;99.90;;;;;;5035772;28;20037;-81
2022/11/24 06:26:00;;;;;;;149.10;142.93;;;4.10;99.90;;;;;;5058725;28;20035;-81
2022/11/24 06:28:26;;;;;;;127.55;122.43;;;4.10;99.90;;;;;;5050805;28;20103;-77
2022/11/24 06:30:52;;;;;;;174.68;167.15;;;4.10;99.90;;;;;;5026669;28;20320;-79
2022/11/24 06:33:18;;;;;;;167.70;160.98;;;4.10;99.90;;;;;;5038880;28;20126;-78
2022/11/24 06:35:43;;;;;;;195.93;185.57;;;4.10;99.90;;;;;;5033099;28;20049;-77
2022/11/24 06:38:10;;;;;;;156.18;150.10;;;4.20;99.90;;;;;;5043573;28;20048;-82
2022/11/24 06:40:36;;;;;;;244.93;216.65;;;4.20;99.90;;;;;;5034907;28;20041;-78
2022/11/24 06:43:01;;;;;;;294.60;281.88;;;4.30;99.90;;;;;;5041641;28;20398;-78
2022/11/24 06:45:27;;;;;;;196.45;188.43;;;4.30;99.90;;;;;;5058293;28;20388;-79
2022/11/24 06:47:54;;;;;;;289.73;272.30;;;4.30;99.90;;;;;;5053159;28;20104;-79
2022/11/24 06:50:21;;;;;;;229.27;220.25;;;4.30;99.90;;;;;;5050657;28;20039;-83
2022/11/24 06:52:47;;;;;;;320.73;302.95;;;4.40;99.90;;;;;;5028405;28;20052;-81
2022/11/24 06:55:13;;;;;;;249.80;232.80;;;4.50;99.90;;;;;;5028702;28;20033;-80
2022/11/24 06:57:38;;;;;;;170.95;160.20;;;4.60;99.90;;;;;;5046436;28;20094;-79
2022/11/24 07:00:06;;;;;;;191.48;183.15;;;4.70;99.90;;;;;;5048882;28;20777;-80
2022/11/24 07:02:32;;;;;;;223.88;214.05;;;4.70;99.90;;;;;;5044207;28;20115;-77
2022/11/24 07:04:58;;;;;;;181.95;174.82;;;4.80;99.90;;;;;;5046410;28;20151;-78
2022/11/24 07:07:24;;;;;;;341.52;318.40;;;4.90;99.90;;;;;;5026714;28;20119;-79
2022/11/24 07:09:49;;;;;;;125.78;120.57;;;4.90;99.90;;;;;;5028788;28;20033;-77
2022/11/24 07:12:15;;;;;;;156.05;146.48;;;4.90;99.90;;;;;;5027977;28;20064;-82
2022/11/24 07:14:41;;;;;;;145.27;137.98;;;5.00;99.90;;;;;;5048105;28;20100;-80
2022/11/24 07:17:06;;;;;;;214.30;205.90;;;5.10;99.90;;;;;;5030326;28;20041;-79
2022/11/24 07:19:32;;;;;;;85.30;82.07;;;5.10;99.90;;;;;;5048868;28;20021;-79
2022/11/24 07:21:58;;;;;;;197.45;188.18;;;5.20;99.90;;;;;;5028253;28;20090;-80
2022/11/24 07:24:23;;;;;;;246.40;197.63;;;5.20;99.90;;;;;;5047116;28;20499;-79
2022/11/24 07:26:49;;;;;;;140.65;134.88;;;5.20;99.90;;;;;;5028995;28;20041;-78
2022/11/24 07:29:15;;;;;;;79.18;76.22;;;5.30;99.90;;;;;;5043069;28;20543;-82
2022/11/24 07:31:41;;;;;;;73.38;70.22;;;5.20;99.90;;;;;;5026142;28;20079;-78
2022/11/24 07:34:07;;;;;;;248.85;235.48;;;5.40;99.90;;;;;;5013214;28;20419;-76
2022/11/24 07:36:32;;;;;;;154.02;145.00;;;5.40;99.90;;;;;;5030356;28;20025;-79
2022/11/24 07:38:58;;;;;;;201.18;189.10;;;5.40;99.90;;;;;;5028715;28;20089;-80
2022/11/24 07:41:24;;;;;;;125.07;120.30;;;5.40;99.90;;;;;;5043609;28;20032;-77
2022/11/24 07:43:50;;;;;;;138.80;132.32;;;5.40;99.90;;;;;;5028943;28;20736;-77
2022/11/24 07:46:18;;;;;;;140.18;134.57;;;5.40;99.90;;;;;;5025235;28;20029;-78
2022/11/24 07:48:44;;;;;;;274.67;256.67;;;5.40;99.90;;;;;;5028224;28;20048;-81
2022/11/24 07:51:10;;;;;;;142.57;134.85;;;5.50;99.90;;;;;;5012779;28;20028;-81
2022/11/24 07:53:36;;;;;;;228.90;208.95;;;5.50;99.90;;;;;;5068026;28;20047;-77
2022/11/24 07:56:05;;;;;;;125.63;120.50;;;5.50;99.90;;;;;;5065552;28;20051;-78
2022/11/24 07:58:32;;;;;;;156.05;145.45;;;5.50;99.90;;;;;;5067188;28;20457;-79
2022/11/24 08:00:59;;;;;;;313.30;283.65;;;5.50;99.90;;;;;;5068569;28;20021;-77
2022/11/24 08:03:24;;;;;;;123.85;118.47;;;5.60;99.90;;;;;;5068310;28;20194;-81
2022/11/24 08:05:56;;;;;;;163.00;154.20;;;5.70;99.90;;;;;;5069021;28;20032;-80
2022/11/24 08:08:23;;;;;;;385.85;337.45;;;5.50;99.90;;;;;;5045505;28;20021;-82
2022/11/24 08:10:49;;;;;;;133.55;128.00;;;5.50;99.90;;;;;;5050317;28;20112;-83
2022/11/24 08:13:15;;;;;;;176.15;167.85;;;5.50;99.90;;;;;;5069239;28;20039;-84
2022/11/24 08:15:41;;;;;;;203.30;194.23;;;5.50;99.90;;;;;;5070048;28;20032;-82
2022/11/24 08:18:07;;;;;;;126.05;120.30;;;5.50;99.90;;;;;;5061452;28;20430;-80
2022/11/24 08:20:32;;;;;;;169.73;162.40;;;5.50;99.90;;;;;;5059708;28;20094;-84
2022/11/24 08:22:59;;;;;;;210.30;196.73;;;5.40;99.90;;;;;;5045504;28;20048;-81
2022/11/24 08:25:31;;;;;;;214.88;205.23;;;5.40;99.90;;;;;;5068198;28;20031;-82
2022/11/24 08:28:01;;;;;;;344.55;330.30;;;5.40;99.90;;;;;;5067680;28;20033;-79
2022/11/24 08:30:27;;;;;;;304.85;279.25;;;5.40;99.90;;;;;;5066438;28;20593;-82
2022/11/24 08:32:53;;;;;;;354.30;331.55;;;5.40;99.90;;;;;;5047350;28;20036;-81
2022/11/24 08:35:19;;;;;;;338.75;315.13;;;5.40;99.90;;;;;;5048941;28;20047;-82
2022/11/24 08:37:44;;;;;;;178.25;171.38;;;5.40;99.90;;;;;;5053083;28;20084;-80
2022/11/24 08:40:11;;;;;;;353.17;329.35;;;5.50;99.90;;;;;;5046715;28;20471;-80
2022/11/24 08:42:36;;;;;;;302.25;264.67;;;5.50;99.90;;;;;;5064275;28;20154;-79
2022/11/24 08:45:03;;;;;;;193.35;184.70;;;5.60;99.90;;;;;;5049357;28;20103;-78
2022/11/24 08:47:28;;;;;;;193.02;185.25;;;5.60;99.90;;;;;;5032473;28;20481;-78
2022/11/24 08:49:54;;;;;;;144.63;138.95;;;5.60;99.90;;;;;;5067364;28;20105;-81
2022/11/24 08:52:20;;;;;;;354.63;325.48;;;5.60;99.90;;;;;;5045467;28;20506;-77
2022/11/24 08:54:45;;;;;;;261.80;248.95;;;5.50;99.90;;;;;;5047664;28;20036;-83
2022/11/24 08:57:12;;;;;;;276.00;264.23;;;5.50;99.90;;;;;;5048653;28;20064;-78
2022/11/24 08:59:38;;;;;;;296.70;279.42;;;5.40;99.90;;;;;;5064957;28;20033;-79
2022/11/24 09:02:05;;;;;;;310.58;295.80;;;5.40;99.90;;;;;;5032375;28;20178;-80
2022/11/24 09:04:30;;;;;;;285.67;274.20;;;5.40;99.90;;;;;;5051028;28;20025;-79
2022/11/24 09:06:57;;;;;;;234.40;224.52;;;5.50;99.90;;;;;;5049390;28;20397;-79
2022/11/24 09:09:23;;;;;;;223.02;213.82;;;5.50;99.90;;;;;;5067506;28;20028;-80
2022/11/24 09:11:49;;;;;;;228.02;218.32;;;5.50;99.90;;;;;;5067989;28;20056;-81
2022/11/24 09:14:15;;;;;;;379.30;362.58;;;5.50;99.90;;;;;;5068448;28;20114;-78
2022/11/24 09:16:40;;;;;;;280.60;267.98;;;5.50;99.90;;;;;;5068293;28;20087;-78
2022/11/24 09:19:06;;;;;;;227.60;217.55;;;5.50;99.90;;;;;;5048756;28;20498;-80
2022/11/24 09:21:36;;;;;;;335.95;321.83;;;5.50;99.90;;;;;;5050234;28;20139;-80
2022/11/24 09:24:02;;;;;;;371.85;344.58;;;5.70;99.90;;;;;;5071791;28;20024;-80
2022/11/24 09:26:31;;;;;;;412.50;381.38;;;5.70;99.90;;;;;;5052509;28;20029;-79
2022/11/24 09:28:58;;;;;;;383.50;366.90;;;5.80;99.90;;;;;;5048153;28;20388;-78
2022/11/24 09:31:29;;;;;;;341.42;326.33;;;6.10;99.90;;;;;;5050836;28;20042;-78
2022/11/24 09:33:57;;;;;;;189.20;179.02;;;6.10;99.90;;;;;;5068658;28;20033;-79
2022/11/24 09:36:23;;;;;;;296.60;283.85;;;6.20;99.90;;;;;;5070010;28;20021;-81
2022/11/24 09:38:49;;;;;;;258.08;246.88;;;6.30;99.90;;;;;;5052346;28;20441;-78
2022/11/24 09:42:03;;;;;;;195.50;187.45;;;6.20;99.90;;;;;;5070392;28;20044;-79
2022/11/24 09:44:47;;;;;;;91.53;87.32;;;6.20;99.90;;;;;;5054839;28;20051;-79
2022/11/24 09:47:35;;;;;;;164.35;157.50;;;6.20;99.90;;;;;;5068641;28;20103;-77
2022/11/24 09:50:18;;;;;;;208.20;199.75;;;6.50;99.90;;;;;;5053073;28;20029;-77
2022/11/24 09:53:00;;;;;;;134.43;128.43;;;6.70;99.90;;;;;;5050136;28;20049;-80
2022/11/24 09:55:46;;;;;;;130.75;123.35;;;6.70;99.90;;;;;;5049647;28;20127;-77
2022/11/24 09:58:41;;;;;;;146.95;140.20;;;6.50;99.90;;;;;;5069764;28;20051;-79
2022/11/24 10:01:16;;;;;;;213.98;203.45;;;6.30;99.90;;;;;;5070186;28;20071;-78
2022/11/24 10:03:49;;;;;;;138.32;132.65;;;6.30;99.90;;;;;;5068441;28;20094;-80
2022/11/24 10:06:29;;;;;;;122.97;118.22;;;6.40;99.90;;;;;;5069500;28;20060;-80
2022/11/24 10:09:19;;;;;;;145.45;139.95;;;6.50;99.90;;;;;;5066641;28;20376;-81
2022/11/24 10:11:57;;;;;;;96.43;91.75;;;6.40;99.90;;;;;;5047251;28;20727;-78
2022/11/24 10:14:53;;;;;;;141.25;135.25;;;6.30;99.90;;;;;;5065791;28;20092;-79
2022/11/24 10:17:44;;;;;;;151.02;145.20;;;6.40;99.90;;;;;;5060699;28;20056;-79
2022/11/24 10:20:35;;;;;;;98.78;95.05;;;6.40;99.90;;;;;;5058453;28;20404;-78
2022/11/24 10:23:03;;;;;;;94.20;90.40;;;6.30;99.90;;;;;;5064200;28;20033;-79
2022/11/24 10:25:50;;;;;;;190.52;180.75;;;6.40;99.90;;;;;;5066462;28;20096;-77
2022/11/24 10:28:16;;;;;;;114.63;110.10;;;6.40;99.90;;;;;;5051833;28;20033;-78
2022/11/24 10:30:42;;;;;;;238.48;227.95;;;6.50;99.90;;;;;;5049852;28;20044;-78
2022/11/24 10:33:21;;;;;;;245.55;230.93;;;6.50;99.90;;;;;;5069617;28;20028;-81
2022/11/24 10:36:02;;;;;;;118.05;113.22;;;6.40;99.90;;;;;;5050040;28;20048;-79
2022/11/24 10:38:44;;;;;;;219.80;210.25;;;6.40;99.90;;;;;;5052055;28;20024;-78
2022/11/24 10:42:02;;;;;;;149.55;140.40;;;6.50;99.90;;;;;;5030048;28;20051;-80
2022/11/24 10:44:28;;;;;;;107.13;103.03;;;6.80;99.90;;;;;;5035130;28;20037;-78
2022/11/24 10:46:54;;;;;;;195.13;183.38;;;6.90;99.90;;;;;;5070302;28;20033;-79
2022/11/24 10:49:26;;;;;;;275.38;263.65;;;7.00;99.90;;;;;;5068852;28;20036;-81
2022/11/24 10:52:00;;;;;;;170.07;163.60;;;6.90;99.90;;;;;;5062624;28;20037;-79
2022/11/24 10:54:25;;;;;;;169.40;158.60;;;7.00;99.90;;;;;;5051729;28;20045;-81
2022/11/24 10:56:53;;;;;;;135.27;129.40;;;6.90;99.90;;;;;;5040382;28;20117;-79
2022/11/24 10:59:33;;;;;;;146.85;140.35;;;7.00;99.90;;;;;;5054489;28;20025;-79
2022/11/24 11:01:59;;;;;;;160.57;148.38;;;7.20;99.90;;;;;;5057890;28;20106;-80
2022/11/24 11:04:31;;;;;;;87.47;83.43;;;7.40;99.90;;;;;;5035591;28;20069;-80
2022/11/24 11:07:26;;;;;;;98.22;93.60;;;7.60;99.90;;;;;;5025154;28;20475;-78
2022/11/24 11:10:21;;;;;;;99.47;95.32;;;7.50;99.90;;;;;;5013444;28;20471;-79
2022/11/24 11:12:48;;;;;;;130.35;124.95;;;7.70;99.90;;;;;;5053126;28;20029;-82
2022/11/24 11:15:29;;;;;;;125.15;119.10;;;7.70;99.90;;;;;;5048040;28;20124;-83
2022/11/24 11:17:58;;;;;;;122.68;118.03;;;7.90;99.90;;;;;;5058223;28;20063;-80
2022/11/24 11:20:34;;;;;;;123.03;116.15;;;7.90;99.90;;;;;;5054527;28;20086;-79
2022/11/24 11:23:12;;;;;;;84.22;80.80;;;7.80;99.90;;;;;;5035557;28;20119;-79
2022/11/24 11:25:39;;;;;;;217.52;208.43;;;8.00;99.90;;;;;;5033132;28;20025;-79
2022/11/24 11:28:27;;;;;;;111.80;107.72;;;8.10;99.90;;;;;;5038495;28;20510;-80
2022/11/24 11:31:02;;;;;;;113.80;109.45;;;8.10;99.90;;;;;;5053217;28;20028;-79
2022/11/24 11:33:29;;;;;;;113.95;109.82;;;8.00;99.90;;;;;;5042267;28;20041;-78
2022/11/24 11:35:57;;;;;;;82.13;78.30;;;7.70;99.90;;;;;;5060817;28;20033;-80
2022/11/24 11:38:25;;;;;;;81.65;77.18;;;7.60;99.90;;;;;;5058216;28;20043;-80
2022/11/24 11:40:52;;;;;;;60.55;58.17;;;7.70;99.90;;;;;;5038888;28;20102;-79
2022/11/24 11:43:39;;;;;;;118.78;113.78;;;7.70;99.90;;;;;;5033716;28;20043;-78
2022/11/24 11:46:11;;;;;;;136.02;129.80;;;7.30;99.90;;;;;;5053592;28;20161;-85
2022/11/24 11:48:42;;;;;;;130.55;120.97;;;7.20;99.90;;;;;;5047518;28;20108;-81
2022/11/24 11:51:33;;;;;;;140.05;134.70;;;7.10;99.90;;;;;;5044301;28;20052;-78
2022/11/24 11:54:20;;;;;;;94.65;91.22;;;7.00;99.90;;;;;;5047981;28;20553;-80
2022/11/24 11:56:56;;;;;;;150.95;137.73;;;7.20;99.90;;;;;;5038651;28;20499;-78
2022/11/24 11:59:36;;;;;;;166.55;160.15;;;7.30;99.90;;;;;;5042994;28;20029;-82
2022/11/24 12:02:27;;;;;;;57.03;54.58;;;7.50;99.90;;;;;;5027868;28;20043;-82
2022/11/24 12:05:10;;;;;;;160.75;148.50;;;7.60;99.90;;;;;;5034828;28;20076;-81
2022/11/24 12:07:48;;;;;;;158.45;147.32;;;7.50;99.90;;;;;;5019338;28;20044;-80
2022/11/24 12:10:38;;;;;;;126.80;122.10;;;7.40;99.90;;;;;;5018142;28;20033;-80
2022/11/24 12:13:28;;;;;;;135.05;129.85;;;7.30;99.90;;;;;;5025825;28;20064;-83
2022/11/24 12:16:02;;;;;;;98.05;94.35;;;7.30;99.90;;;;;;5032819;28;20055;-80
2022/11/24 12:18:49;;;;;;;102.72;98.53;;;7.20;99.90;;;;;;5036861;28;20040;-89
2022/11/24 12:21:21;;;;;;;89.60;86.38;;;7.00;99.90;;;;;;5024110;28;20045;-82
2022/11/24 12:23:55;;;;;;;396.17;361.58;;;6.90;99.90;;;;;;5042242;28;20028;-81
2022/11/24 12:26:26;;;;;;;115.97;111.55;;;7.00;99.90;;;;;;5045727;28;20095;-81
2022/11/24 12:29:16;;;;;;;213.82;201.95;;;7.10;99.90;;;;;;5041424;28;20106;-83